createdAt,value
2018-02-07T00:02:22.744Z,15.77
2018-02-07T00:04:50.542Z,13.83
2018-02-07T00:07:19.398Z,10.70
2018-02-07T00:09:48.538Z,13.10
2018-02-07T00:12:17.214Z,15.03
2018-02-07T00:14:51.320Z,12.27
2018-02-07T00:17:20.316Z,11.50
2018-02-07T00:19:51.564Z,7.20
2018-02-07T00:22:23.278Z,10.37
2018-02-07T00:24:51.396Z,12.97
2018-02-07T00:27:25.177Z,6.80
2018-02-07T00:29:53.749Z,9.27
2018-02-07T00:32:22.982Z,5.47
2018-02-07T00:34:52.430Z,9.73
2018-02-07T00:37:29.093Z,9.23
2018-02-07T00:39:57.115Z,11.20
2018-02-07T00:42:27.934Z,10.67
2018-02-07T00:44:55.903Z,10.70
2018-02-07T00:47:23.792Z,11.60
2018-02-07T00:49:53.229Z,11.93
2018-02-07T00:52:21.052Z,13.90
2018-02-07T00:54:48.907Z,12.33
2018-02-07T00:57:16.865Z,8.53
2018-02-07T00:59:45.803Z,13.80
2018-02-07T01:02:13.876Z,13.33
2018-02-07T01:04:47.606Z,15.00
2018-02-07T01:07:22.719Z,10.90
2018-02-07T01:09:50.787Z,16.03
2018-02-07T01:12:19.537Z,12.90
2018-02-07T01:14:48.355Z,13.53
2018-02-07T01:17:17.166Z,8.63
2018-02-07T01:19:47.305Z,11.27
2018-02-07T01:22:16.929Z,21.70
2018-02-07T01:24:45.581Z,11.00
2018-02-07T01:27:13.537Z,9.10
2018-02-07T01:29:41.605Z,12.13
2018-02-07T01:32:10.091Z,9.57
2018-02-07T01:34:38.214Z,11.83
2018-02-07T01:37:09.515Z,15.93
2018-02-07T01:39:37.690Z,12.53
2018-02-07T01:42:07.401Z,10.53
2018-02-07T01:44:35.878Z,23.40
2018-02-07T01:47:03.652Z,15.70
2018-02-07T01:49:31.711Z,21.00
2018-02-07T01:52:00.202Z,16.43
2018-02-07T01:54:28.246Z,18.83
2018-02-07T01:56:56.913Z,17.17
2018-02-07T01:59:25.505Z,17.20
2018-02-07T02:01:54.176Z,20.20
2018-02-07T02:04:23.061Z,23.93
2018-02-07T02:06:52.684Z,26.10
2018-02-07T02:09:21.511Z,19.07
2018-02-07T02:11:50.265Z,19.70
2018-02-07T02:14:18.088Z,15.33
2018-02-07T02:16:48.043Z,15.30
2018-02-07T02:19:16.155Z,11.17
2018-02-07T02:21:47.802Z,17.30
2018-02-07T02:24:16.498Z,11.30
2018-02-07T02:26:49.857Z,16.43
2018-02-07T02:29:18.502Z,22.43
2018-02-07T02:31:48.475Z,20.60
2018-02-07T02:34:21.616Z,30.93
2018-02-07T02:36:52.380Z,22.13
2018-02-07T02:39:23.241Z,17.03
2018-02-07T02:41:54.888Z,18.93
2018-02-07T02:44:27.705Z,15.33
2018-02-07T02:52:19.001Z,12.57
2018-02-07T02:54:51.937Z,13.83
2018-02-07T02:57:28.136Z,8.10
2018-02-07T03:12:37.256Z,16.90
2018-02-07T03:15:08.249Z,25.93
2018-02-07T03:17:43.887Z,14.90
2018-02-07T03:20:26.342Z,19.57
2018-02-07T03:23:23.645Z,30.70
2018-02-07T03:25:53.389Z,12.73
2018-02-07T03:31:18.198Z,27.57
2018-02-07T03:33:48.717Z,20.17
2018-02-07T03:36:21.066Z,28.27
2018-02-07T03:44:28.786Z,24.20
2018-02-07T03:47:02.849Z,16.73
2018-02-07T03:52:16.232Z,27.80
2018-02-07T03:54:54.078Z,18.03
2018-02-07T03:57:37.890Z,19.67
2018-02-07T04:00:12.494Z,11.70
2018-02-07T04:02:52.371Z,20.07
2018-02-07T04:06:09.359Z,15.27
2018-02-07T04:18:00.476Z,20.90
2018-02-07T04:20:30.015Z,13.40
2018-02-07T04:30:40.028Z,17.20
2018-02-07T04:33:13.094Z,23.17
2018-02-07T04:35:43.658Z,20.27
2018-02-07T04:38:15.475Z,34.50
2018-02-07T04:40:47.125Z,21.77
2018-02-07T04:43:32.834Z,28.27
2018-02-07T04:46:04.334Z,34.20
2018-02-07T04:48:42.240Z,23.00
2018-02-07T04:51:11.697Z,56.73
2018-02-07T04:53:44.476Z,61.87
2018-02-07T04:56:18.488Z,22.17
2018-02-07T04:58:48.856Z,37.07
2018-02-07T05:01:18.725Z,28.07
2018-02-07T05:03:52.638Z,32.30
2018-02-07T05:06:23.738Z,29.13
2018-02-07T05:08:54.879Z,20.70
2018-02-07T05:11:28.051Z,33.30
2018-02-07T05:14:09.460Z,36.67
2018-02-07T05:16:41.191Z,26.10
2018-02-07T05:19:09.744Z,26.43
2018-02-07T05:21:37.712Z,28.57
2018-02-07T05:24:06.190Z,25.40
2018-02-07T05:26:34.199Z,26.57
2018-02-07T05:29:02.150Z,32.60
2018-02-07T05:31:32.673Z,30.47
2018-02-07T05:34:01.358Z,21.33
2018-02-07T05:36:29.124Z,13.90
2018-02-07T05:38:57.196Z,15.53
2018-02-07T05:41:26.051Z,17.20
2018-02-07T05:43:54.170Z,15.30
2018-02-07T05:46:22.027Z,9.47
2018-02-07T05:48:50.086Z,11.80
2018-02-07T05:51:18.158Z,11.93
2018-02-07T05:53:47.153Z,13.90
2018-02-07T05:56:16.042Z,14.67
2018-02-07T05:58:45.015Z,15.83
2018-02-07T06:01:13.108Z,19.77
2018-02-07T06:03:41.103Z,25.93
2018-02-07T06:06:08.917Z,19.43
2018-02-07T06:08:36.829Z,22.60
2018-02-07T06:11:04.883Z,23.27
2018-02-07T06:13:32.776Z,24.83
2018-02-07T06:16:00.683Z,23.10
2018-02-07T06:18:28.653Z,23.27
2018-02-07T06:20:56.741Z,18.00
2018-02-07T06:23:24.808Z,39.97
2018-02-07T06:25:52.600Z,27.37
2018-02-07T06:28:20.470Z,26.43
2018-02-07T06:30:48.434Z,18.60
2018-02-07T06:33:16.428Z,27.03
2018-02-07T06:35:44.572Z,37.67
2018-02-07T06:38:12.854Z,30.27
2018-02-07T06:40:40.928Z,28.27
2018-02-07T06:43:08.996Z,31.90
2018-02-07T06:45:37.072Z,27.07
2018-02-07T06:48:05.402Z,39.50
2018-02-07T06:50:33.472Z,31.23
2018-02-07T06:53:01.442Z,36.53
2018-02-07T06:55:29.331Z,38.73
2018-02-07T06:57:57.298Z,27.37
2018-02-07T07:00:26.391Z,23.57
2018-02-07T07:02:54.255Z,26.00
2018-02-07T07:05:23.349Z,28.53
2018-02-07T07:07:51.317Z,27.90
2018-02-07T07:10:19.291Z,26.20
2018-02-07T07:12:47.182Z,21.00
2018-02-07T07:15:15.168Z,18.33
2018-02-07T07:17:43.851Z,27.07
2018-02-07T07:20:11.908Z,24.70
2018-02-07T07:22:40.129Z,25.00
2018-02-07T07:25:08.104Z,30.03
2018-02-07T07:27:37.472Z,36.57
2018-02-07T07:30:05.497Z,42.43
2018-02-07T07:32:36.274Z,32.03
2018-02-07T07:35:04.222Z,35.23
2018-02-07T07:37:37.849Z,44.53
2018-02-07T07:40:06.977Z,40.17
2018-02-07T07:42:34.908Z,37.00
2018-02-07T07:45:02.813Z,50.00
2018-02-07T07:47:31.860Z,47.70
2018-02-07T07:49:59.960Z,36.67
2018-02-07T07:52:28.024Z,30.90
2018-02-07T07:54:56.056Z,39.57
2018-02-07T07:57:27.724Z,35.20
2018-02-07T07:59:55.882Z,31.10
2018-02-07T08:02:23.758Z,47.83
2018-02-07T08:04:51.732Z,37.90
2018-02-07T08:07:19.544Z,25.53
2018-02-07T08:09:47.492Z,22.63
2018-02-07T08:12:16.694Z,30.30
2018-02-07T08:14:44.639Z,29.23
2018-02-07T08:17:12.607Z,32.13
2018-02-07T08:19:40.315Z,32.53
2018-02-07T08:22:09.386Z,26.00
2018-02-07T08:24:37.316Z,31.90
2018-02-07T08:27:05.399Z,35.20
2018-02-07T08:29:33.492Z,40.33
2018-02-07T08:32:01.572Z,36.13
2018-02-07T08:34:29.643Z,29.10
2018-02-07T08:36:57.717Z,34.77
2018-02-07T08:39:25.636Z,40.57
2018-02-07T08:41:53.526Z,28.17
2018-02-07T08:44:22.219Z,41.70
2018-02-07T08:46:50.618Z,39.13
2018-02-07T08:49:18.690Z,36.27
2018-02-07T08:51:46.557Z,35.77
2018-02-07T08:54:14.596Z,27.17
2018-02-07T08:56:42.699Z,29.70
2018-02-07T08:59:10.774Z,53.83
2018-02-07T09:01:38.793Z,26.40
2018-02-07T09:04:06.704Z,32.83
2018-02-07T09:06:34.648Z,24.83
2018-02-07T09:09:02.675Z,23.80
2018-02-07T09:11:30.883Z,35.03
2018-02-07T09:13:59.002Z,28.10
2018-02-07T09:16:27.066Z,32.97
2018-02-07T09:18:55.133Z,42.17
2018-02-07T09:21:23.201Z,32.40
2018-02-07T09:23:51.202Z,47.90
2018-02-07T09:26:19.182Z,37.60
2018-02-07T09:28:47.026Z,39.00
2018-02-07T09:31:15.224Z,33.40
2018-02-07T09:33:43.433Z,33.43
2018-02-07T09:36:11.406Z,132.80
2018-02-07T09:38:39.171Z,46.30
2018-02-07T09:41:07.135Z,42.83
2018-02-07T09:43:35.104Z,30.20
2018-02-07T09:46:02.929Z,31.97
2018-02-07T09:48:30.810Z,37.30
2018-02-07T09:50:59.752Z,35.97
2018-02-07T09:53:27.727Z,37.40
2018-02-07T09:55:55.609Z,41.30
2018-02-07T09:58:23.426Z,46.50
2018-02-07T10:00:52.261Z,39.83
2018-02-07T10:03:20.287Z,66.87
2018-02-07T10:05:48.378Z,34.10
2018-02-07T10:08:16.316Z,43.13
2018-02-07T10:10:48.084Z,33.10
2018-02-07T10:13:16.056Z,58.90
2018-02-07T10:15:44.175Z,36.00
2018-02-07T10:18:12.114Z,34.77
2018-02-07T10:20:40.119Z,48.20
2018-02-07T10:23:08.147Z,31.90
2018-02-07T10:25:36.262Z,38.43
2018-02-07T10:28:04.332Z,47.17
2018-02-07T10:30:32.271Z,38.07
2018-02-07T10:33:00.139Z,35.53
2018-02-07T10:35:29.202Z,35.47
2018-02-07T10:37:57.234Z,45.47
2018-02-07T10:40:25.164Z,41.53
2018-02-07T10:42:53.173Z,44.53
2018-02-07T10:45:21.245Z,40.53
2018-02-07T10:47:49.290Z,39.27
2018-02-07T10:50:17.290Z,41.03
2018-02-07T10:52:45.328Z,52.53
2018-02-07T10:55:13.416Z,40.17
2018-02-07T10:57:41.501Z,37.80
2018-02-07T11:00:10.190Z,37.07
2018-02-07T11:02:38.261Z,44.03
2018-02-07T11:05:06.290Z,42.87
2018-02-07T11:07:34.263Z,41.03
2018-02-07T11:10:02.022Z,42.87
2018-02-07T11:12:30.045Z,46.77
2018-02-07T11:14:58.276Z,41.97
2018-02-07T11:17:26.413Z,40.07
2018-02-07T11:19:54.536Z,38.67
2018-02-07T11:22:22.528Z,36.23
2018-02-07T11:24:50.499Z,44.93
2018-02-07T11:27:18.639Z,33.63
2018-02-07T11:29:46.744Z,40.20
2018-02-07T11:32:14.870Z,44.87
2018-02-07T11:34:42.875Z,44.73
2018-02-07T11:37:10.929Z,37.93
2018-02-07T11:39:39.022Z,35.90
2018-02-07T11:42:07.088Z,49.53
2018-02-07T11:44:35.831Z,39.83
2018-02-07T11:47:03.844Z,44.03
2018-02-07T11:49:32.145Z,45.57
2018-02-07T11:52:00.209Z,51.53
2018-02-07T11:54:28.049Z,41.13
2018-02-07T11:56:56.151Z,35.80
2018-02-07T11:59:24.648Z,45.17
2018-02-07T12:01:52.703Z,33.00
2018-02-07T12:04:22.234Z,30.13
2018-02-07T12:06:50.266Z,40.80
2018-02-07T12:09:18.335Z,35.10
2018-02-07T12:11:46.294Z,30.20
2018-02-07T12:14:14.359Z,40.30
2018-02-07T12:16:42.449Z,42.50
2018-02-07T12:19:10.316Z,40.87
2018-02-07T12:21:39.208Z,38.07
2018-02-07T12:24:07.284Z,52.27
2018-02-07T12:26:35.986Z,34.37
2018-02-07T12:29:04.055Z,47.70
2018-02-07T12:31:31.977Z,37.63
2018-02-07T12:33:59.898Z,43.30
2018-02-07T12:36:28.136Z,40.63
2018-02-07T12:38:56.209Z,35.40
2018-02-07T12:41:24.325Z,35.67
2018-02-07T12:43:52.259Z,38.83
2018-02-07T12:46:20.331Z,35.60
2018-02-07T12:48:48.325Z,32.07
2018-02-07T12:51:16.390Z,35.83
2018-02-07T12:53:44.130Z,34.90
2018-02-07T12:56:12.097Z,35.87
2018-02-07T12:58:39.988Z,34.67
2018-02-07T13:01:07.934Z,40.07
2018-02-07T13:03:35.923Z,38.20
2018-02-07T13:06:03.991Z,34.20
2018-02-07T13:08:32.432Z,34.13
2018-02-07T13:11:00.559Z,42.97
2018-02-07T13:13:28.393Z,46.10
2018-02-07T13:15:56.265Z,41.40
2018-02-07T13:18:24.262Z,38.40
2018-02-07T13:20:52.296Z,45.73
2018-02-07T13:23:20.408Z,36.90
2018-02-07T13:25:48.554Z,33.00
2018-02-07T13:28:16.654Z,32.60
2018-02-07T13:30:45.600Z,30.73
2018-02-07T13:33:14.527Z,40.60
2018-02-07T13:35:42.406Z,39.90
2018-02-07T13:38:10.435Z,35.17
2018-02-07T13:40:38.403Z,36.87
2018-02-07T13:43:06.746Z,36.13
2018-02-07T13:45:34.739Z,29.50
2018-02-07T13:48:03.665Z,33.43
2018-02-07T13:50:31.623Z,33.43
2018-02-07T13:52:59.725Z,35.97
2018-02-07T13:55:27.810Z,33.03
2018-02-07T13:57:55.834Z,35.43
2018-02-07T14:00:23.768Z,45.27
2018-02-07T14:02:51.534Z,30.43
2018-02-07T14:05:19.372Z,38.47
2018-02-07T14:07:47.439Z,37.97
2018-02-07T14:10:15.482Z,25.13
2018-02-07T14:12:44.165Z,62.70
2018-02-07T14:15:12.238Z,31.77
2018-02-07T14:17:40.240Z,33.27
2018-02-07T14:20:09.275Z,29.07
2018-02-07T14:22:37.294Z,38.67
2018-02-07T14:25:05.455Z,37.33
2018-02-07T14:27:33.362Z,34.80
2018-02-07T14:30:02.442Z,35.43
2018-02-07T14:32:30.617Z,34.20
2018-02-07T14:34:59.779Z,36.27
2018-02-07T14:37:28.590Z,30.13
2018-02-07T14:39:56.464Z,41.80
2018-02-07T14:42:24.349Z,38.23
2018-02-07T14:44:52.412Z,43.97
2018-02-07T14:47:20.487Z,36.00
2018-02-07T14:49:48.430Z,36.93
2018-02-07T14:52:16.524Z,42.50
2018-02-07T14:54:45.147Z,32.80
2018-02-07T14:57:13.261Z,44.90
2018-02-07T14:59:41.223Z,37.03
2018-02-07T15:02:12.767Z,38.50
2018-02-07T15:04:40.836Z,39.90
2018-02-07T15:07:09.825Z,39.73
2018-02-07T15:09:37.845Z,34.60
2018-02-07T15:12:05.934Z,35.97
2018-02-07T15:14:34.189Z,41.43
2018-02-07T15:17:02.059Z,38.53
2018-02-07T15:19:30.095Z,35.60
2018-02-07T15:21:58.201Z,37.90
2018-02-07T15:24:26.142Z,36.50
2018-02-07T15:26:54.261Z,39.10
2018-02-07T15:29:22.121Z,40.73
2018-02-07T15:31:50.041Z,40.67
2018-02-07T15:34:17.908Z,42.27
2018-02-07T15:36:46.017Z,39.23
2018-02-07T15:39:13.891Z,35.00
2018-02-07T15:41:42.034Z,35.17
2018-02-07T15:44:09.826Z,33.87
2018-02-07T15:46:38.543Z,35.87
2018-02-07T15:49:06.587Z,40.37
2018-02-07T15:51:34.448Z,34.90
2018-02-07T15:54:02.369Z,35.87
2018-02-07T15:56:30.284Z,31.57
2018-02-07T15:58:58.360Z,45.17
2018-02-07T16:01:26.430Z,39.00
2018-02-07T16:03:54.506Z,38.17
2018-02-07T16:06:22.572Z,31.50
2018-02-07T16:08:51.294Z,38.60
2018-02-07T16:11:21.071Z,40.10
2018-02-07T16:13:50.075Z,34.00
2018-02-07T16:16:18.143Z,35.00
2018-02-07T16:18:47.017Z,42.63
2018-02-07T16:21:15.081Z,36.97
2018-02-07T16:23:44.197Z,41.90
2018-02-07T16:26:12.273Z,37.37
2018-02-07T16:28:41.775Z,38.93
2018-02-07T16:31:10.553Z,47.83
2018-02-07T16:33:38.718Z,34.67
2018-02-07T16:36:06.810Z,37.70
2018-02-07T16:38:35.626Z,41.43
2018-02-07T16:41:04.299Z,49.50
2018-02-07T16:43:32.659Z,57.97
2018-02-07T16:46:01.761Z,44.00
2018-02-07T16:48:29.795Z,35.80
2018-02-07T16:50:58.279Z,35.10
2018-02-07T16:53:26.151Z,34.40
2018-02-07T16:55:55.252Z,33.60
2018-02-07T16:58:23.347Z,32.17
2018-02-07T17:00:52.440Z,31.30
2018-02-07T17:03:20.466Z,34.97
2018-02-07T17:05:50.143Z,41.10
2018-02-07T17:08:19.409Z,34.60
2018-02-07T17:10:48.625Z,36.27
2018-02-07T17:13:16.801Z,37.97
2018-02-07T17:15:44.964Z,34.70
2018-02-07T17:18:13.398Z,40.70
2018-02-07T17:20:41.853Z,38.20
2018-02-07T17:23:09.987Z,39.90
2018-02-07T17:25:39.162Z,35.13
2018-02-07T17:28:08.920Z,38.43
2018-02-07T17:30:39.351Z,50.47
2018-02-07T17:33:08.525Z,37.70
2018-02-07T17:35:36.663Z,35.90
2018-02-07T17:38:05.099Z,30.93
2018-02-07T17:40:33.793Z,30.60
2018-02-07T17:43:02.051Z,32.03
2018-02-07T17:45:30.843Z,27.97
2018-02-07T17:47:58.731Z,29.53
2018-02-07T17:50:26.740Z,37.00
2018-02-07T17:52:54.748Z,35.83
2018-02-07T17:55:22.626Z,40.43
2018-02-07T17:57:51.509Z,40.60
2018-02-07T18:00:19.722Z,42.70
2018-02-07T18:02:47.950Z,35.70
2018-02-07T18:05:16.092Z,36.00
2018-02-07T18:07:45.036Z,36.40
2018-02-07T18:10:12.882Z,39.20
2018-02-07T18:12:41.157Z,39.37
2018-02-07T18:15:09.569Z,47.60
2018-02-07T18:17:39.470Z,35.63
2018-02-07T18:20:08.462Z,38.90
2018-02-07T18:22:37.823Z,31.70
2018-02-07T18:25:06.569Z,33.90
2018-02-07T18:27:34.623Z,30.10
2018-02-07T18:30:02.561Z,36.87
2018-02-07T18:32:31.154Z,30.73
2018-02-07T18:34:59.328Z,29.63
2018-02-07T18:37:27.707Z,67.43
2018-02-07T18:39:55.723Z,142.67
2018-02-07T18:42:23.804Z,69.77
2018-02-07T18:44:52.234Z,44.00
2018-02-07T18:47:20.323Z,37.57
2018-02-07T18:49:48.479Z,41.07
2018-02-07T18:52:16.792Z,38.93
2018-02-07T18:54:44.846Z,37.73
2018-02-07T18:57:13.320Z,35.23
2018-02-07T18:59:41.225Z,36.30
2018-02-07T19:02:09.453Z,39.87
2018-02-07T19:04:37.531Z,44.40
2018-02-07T19:07:05.616Z,46.67
2018-02-07T19:09:34.484Z,51.27
2018-02-07T19:12:02.957Z,55.07
2018-02-07T19:14:31.938Z,52.63
2018-02-07T19:17:00.332Z,44.07
2018-02-07T19:19:28.174Z,49.37
2018-02-07T19:21:56.330Z,38.47
2018-02-07T19:24:24.655Z,41.90
2018-02-07T19:26:53.415Z,55.07
2018-02-07T19:29:22.770Z,43.27
2018-02-07T19:31:53.625Z,34.80
2018-02-07T19:34:21.677Z,43.50
2018-02-07T19:36:49.747Z,34.57
2018-02-07T19:39:17.822Z,28.87
2018-02-07T19:41:46.076Z,39.03
2018-02-07T19:44:15.494Z,28.77
2018-02-07T19:46:43.576Z,33.10
2018-02-07T19:49:18.463Z,29.90
2018-02-07T19:51:46.840Z,34.20
2018-02-07T19:54:16.579Z,31.83
2018-02-07T19:56:44.773Z,30.90
2018-02-07T19:59:14.174Z,33.93
2018-02-07T20:01:44.972Z,30.67
2018-02-07T20:04:13.157Z,32.57
2018-02-07T20:06:41.719Z,34.13
2018-02-07T20:09:12.512Z,35.47
2018-02-07T20:11:41.080Z,32.20
2018-02-07T20:14:09.259Z,36.23
2018-02-07T20:16:38.314Z,32.53
2018-02-07T20:19:09.777Z,33.33
2018-02-07T20:21:38.500Z,33.37
2018-02-07T20:24:06.398Z,33.53
2018-02-07T20:26:34.381Z,36.17
2018-02-07T20:29:03.328Z,31.20
2018-02-07T20:31:32.017Z,33.97
2018-02-07T20:33:59.963Z,38.07
2018-02-07T20:36:28.574Z,28.60
2018-02-07T20:38:58.040Z,35.37
2018-02-07T20:41:26.144Z,38.60
2018-02-07T20:43:54.316Z,35.00
2018-02-07T20:46:23.414Z,35.40
2018-02-07T20:48:51.315Z,37.57
2018-02-07T20:51:20.271Z,26.43
2018-02-07T20:53:48.193Z,37.70
2018-02-07T20:56:16.313Z,36.17
2018-02-07T20:58:44.333Z,34.83
2018-02-07T21:01:12.348Z,41.33
2018-02-07T21:03:40.237Z,40.07
2018-02-07T21:06:08.398Z,34.77
2018-02-07T21:08:36.225Z,38.20
2018-02-07T21:11:04.412Z,36.93
2018-02-07T21:13:32.408Z,33.30
2018-02-07T21:16:00.487Z,29.10
2018-02-07T21:18:28.612Z,32.03
2018-02-07T21:20:56.479Z,32.00
2018-02-07T21:23:25.593Z,38.00
2018-02-07T21:25:55.065Z,38.50
2018-02-07T21:28:23.094Z,36.57
2018-02-07T21:30:51.050Z,33.37
2018-02-07T21:33:18.953Z,36.63
2018-02-07T21:35:47.311Z,39.33
2018-02-07T21:38:15.482Z,37.90
2018-02-07T21:40:43.448Z,34.20
2018-02-07T21:43:12.387Z,35.10
2018-02-07T21:45:41.095Z,37.27
2018-02-07T21:48:09.611Z,40.20
2018-02-07T21:50:38.508Z,44.00
2018-02-07T21:53:06.453Z,37.33
2018-02-07T21:55:34.545Z,39.97
2018-02-07T21:58:02.809Z,45.83
2018-02-07T22:00:30.897Z,42.07
2018-02-07T22:03:00.458Z,38.27
2018-02-07T22:05:28.558Z,41.57
2018-02-07T22:07:56.334Z,39.33
2018-02-07T22:10:24.437Z,38.20
2018-02-07T22:12:53.283Z,44.27
2018-02-07T22:15:21.462Z,41.93
2018-02-07T22:17:50.019Z,41.67
2018-02-07T22:20:18.066Z,45.70
2018-02-07T22:22:46.919Z,39.23
2018-02-07T22:25:14.948Z,44.90
2018-02-07T22:27:43.008Z,44.30
2018-02-07T22:30:11.706Z,38.10
2018-02-07T22:32:39.633Z,40.13
2018-02-07T22:35:07.613Z,47.13
2018-02-07T22:37:35.431Z,39.33
2018-02-07T22:40:03.628Z,43.33
2018-02-07T22:42:31.689Z,36.80
2018-02-07T22:44:59.755Z,40.43
2018-02-07T22:47:27.819Z,46.27
2018-02-07T22:49:55.940Z,42.60
2018-02-07T22:52:23.935Z,45.23
2018-02-07T22:54:52.061Z,41.80
2018-02-07T22:57:20.139Z,38.60
2018-02-07T22:59:48.081Z,39.27
2018-02-07T23:02:16.152Z,43.60
2018-02-07T23:04:43.963Z,38.80
2018-02-07T23:07:12.807Z,40.03
2018-02-07T23:09:41.699Z,42.83
2018-02-07T23:12:09.541Z,41.40
2018-02-07T23:14:37.364Z,42.30
2018-02-07T23:17:05.273Z,42.30
2018-02-07T23:19:34.623Z,38.60
2018-02-07T23:22:02.644Z,37.20
2018-02-07T23:24:30.823Z,40.00
2018-02-07T23:26:58.835Z,49.83
2018-02-07T23:29:27.706Z,36.77
2018-02-07T23:31:55.568Z,39.60
2018-02-07T23:34:23.465Z,37.80
2018-02-07T23:36:51.535Z,44.47
2018-02-07T23:39:20.151Z,34.43
2018-02-07T23:41:49.114Z,36.37
2018-02-07T23:44:17.034Z,37.03
2018-02-07T23:46:44.906Z,35.93
2018-02-07T23:49:12.793Z,36.10
2018-02-07T23:51:40.685Z,40.03
2018-02-07T23:54:08.552Z,40.23
2018-02-07T23:56:36.313Z,35.83
2018-02-07T23:59:04.337Z,37.30
